Time;durP1;ratioP1;P1;durP2;ratioP2;P2;SDS_P1;SDS_P2;PMS_P1;PMS_P2;Temp;Humidity;BMP_temperature;BMP_pressure;BME280_temperature;BME280_humidity;BME280_pressure;Samples;Min_cycle;Max_cycle;Signal;HPM_P1;HPM_P2
2021/08/19 00:00:22;;;;;;;7.50;3.42;;;;;;;;;;5033652;28;20093;-77
2021/08/19 00:02:48;;;;;;;8.30;4.10;;;;;;;;;;5015560;28;20587;-77
2021/08/19 00:05:14;;;;;;;6.93;2.80;;;;;;;;;;5033322;28;20025;-76
2021/08/19 00:07:40;;;;;;;5.45;3.08;;;;;;;;;;5033205;28;20049;-77
2021/08/19 00:10:06;;;;;;;7.93;3.58;;;;;;;;;;5033078;28;20045;-78
2021/08/19 00:12:32;;;;;;;7.07;3.17;;;;;;;;;;5033617;28;20394;-76
2021/08/19 00:14:58;;;;;;;7.05;3.05;;;;;;;;;;5033298;28;20033;-76
2021/08/19 00:17:24;;;;;;;5.45;3.10;;;;;;;;;;5033583;28;20422;-77
2021/08/19 00:19:50;;;;;;;5.45;2.92;;;;;;;;;;5033267;28;20173;-76
2021/08/19 00:22:16;;;;;;;6.47;3.00;;;;;;;;;;5033161;28;20025;-76
2021/08/19 00:24:42;;;;;;;5.32;2.78;;;;;;;;;;5033215;28;20022;-76
2021/08/19 00:27:08;;;;;;;4.50;3.13;;;;;;;;;;5033487;28;20026;-77
2021/08/19 00:29:34;;;;;;;7.10;3.95;;;;;;;;;;5033208;28;20076;-77
2021/08/19 00:32:03;;;;;;;6.47;2.60;;;;;;;;;;5033167;28;20465;-77
2021/08/19 00:34:29;;;;;;;4.72;3.05;;;;;;;;;;5033146;28;20092;-77
2021/08/19 00:36:55;;;;;;;5.10;3.00;;;;;;;;;;5032978;28;20482;-77
2021/08/19 00:39:21;;;;;;;7.45;3.08;;;;;;;;;;5033201;28;20021;-78
2021/08/19 00:41:47;;;;;;;5.47;2.83;;;;;;;;;;5032934;28;20022;-76
2021/08/19 00:44:14;;;;;;;4.63;2.88;;;;;;;;;;5032823;28;20029;-76
2021/08/19 00:46:42;;;;;;;6.18;2.80;;;;;;;;;;5033170;28;20026;-77
2021/08/19 00:49:15;;;;;;;6.07;3.10;;;;;;;;;;5033255;28;20103;-77
2021/08/19 00:51:45;;;;;;;6.82;2.90;;;;;;;;;;5015213;28;20045;-76
2021/08/19 00:54:13;;;;;;;5.70;2.80;;;;;;;;;;5033505;28;20371;-76
2021/08/19 00:56:40;;;;;;;5.75;3.05;;;;;;;;;;5032904;28;20079;-78
2021/08/19 00:59:06;;;;;;;5.40;3.50;;;;;;;;;;5015185;28;20116;-76
2021/08/19 01:01:32;;;;;;;7.63;3.13;;;;;;;;;;5032881;28;20083;-77
2021/08/19 01:03:58;;;;;;;4.22;2.92;;;;;;;;;;5033049;28;20084;-77
2021/08/19 01:06:24;;;;;;;6.47;3.03;;;;;;;;;;5032822;28;20036;-77
2021/08/19 01:08:51;;;;;;;5.18;2.72;;;;;;;;;;5034923;28;20021;-76
2021/08/19 01:11:17;;;;;;;8.48;3.40;;;;;;;;;;5036527;28;20041;-76
2021/08/19 01:13:44;;;;;;;6.22;3.00;;;;;;;;;;5018801;28;20029;-77
2021/08/19 01:16:11;;;;;;;4.70;2.53;;;;;;;;;;5019272;28;20053;-77
2021/08/19 01:18:43;;;;;;;6.68;3.17;;;;;;;;;;5036519;28;20473;-76
2021/08/19 01:21:13;;;;;;;6.22;3.28;;;;;;;;;;5018705;28;20087;-77
2021/08/19 01:23:39;;;;;;;5.45;2.90;;;;;;;;;;5036898;28;20025;-77
2021/08/19 01:26:12;;;;;;;4.07;2.80;;;;;;;;;;5036594;28;20477;-77
2021/08/19 01:28:38;;;;;;;5.35;2.90;;;;;;;;;;5036620;28;20044;-76
2021/08/19 01:31:05;;;;;;;6.72;3.25;;;;;;;;;;5018494;28;20030;-75
2021/08/19 01:33:32;;;;;;;4.75;3.10;;;;;;;;;;5036473;28;20385;-77
2021/08/19 01:35:58;;;;;;;4.90;3.03;;;;;;;;;;5036439;28;20029;-76
2021/08/19 01:38:29;;;;;;;4.28;2.80;;;;;;;;;;5018311;28;20059;-76
2021/08/19 01:40:54;;;;;;;;;;;;;;;;;;5036469;28;20029;-76
2021/08/19 01:43:22;;;;;;;5.25;3.05;;;;;;;;;;5035914;28;19916;-76
2021/08/19 01:45:48;;;;;;;5.65;3.10;;;;;;;;;;5036267;28;20018;-75
2021/08/19 01:48:17;;;;;;;4.50;2.85;;;;;;;;;;5036105;28;20436;-75
2021/08/19 01:50:43;;;;;;;6.53;3.10;;;;;;;;;;5036443;28;20022;-76
2021/08/19 01:53:09;;;;;;;6.60;2.92;;;;;;;;;;5035709;28;20060;-76
2021/08/19 01:55:35;;;;;;;5.70;2.88;;;;;;;;;;5036035;28;20021;-76
2021/08/19 01:58:01;;;;;;;4.70;2.97;;;;;;;;;;5035783;28;20394;-76
2021/08/19 02:00:27;;;;;;;6.85;3.53;;;;;;;;;;5035743;28;20017;-77
2021/08/19 02:02:53;;;;;;;7.70;3.40;;;;;;;;;;5035642;28;20099;-76
2021/08/19 02:05:19;;;;;;;5.63;2.92;;;;;;;;;;5035519;28;20022;-76
2021/08/19 02:07:45;;;;;;;5.65;3.33;;;;;;;;;;5035493;28;20028;-76
2021/08/19 02:10:11;;;;;;;6.25;3.20;;;;;;;;;;5035761;28;20045;-75
2021/08/19 02:12:37;;;;;;;5.78;3.15;;;;;;;;;;5035744;28;20025;-76
2021/08/19 02:15:04;;;;;;;7.97;3.22;;;;;;;;;;5035701;28;20113;-76
2021/08/19 02:17:30;;;;;;;7.13;3.40;;;;;;;;;;5035295;28;20477;-76
2021/08/19 02:19:56;;;;;;;4.72;3.15;;;;;;;;;;5035372;28;20029;-76
2021/08/19 02:22:22;;;;;;;5.38;2.83;;;;;;;;;;5035519;28;20174;-77
2021/08/19 02:24:48;;;;;;;5.82;3.20;;;;;;;;;;5035161;28;20029;-76
2021/08/19 02:27:14;;;;;;;4.57;2.80;;;;;;;;;;5035488;28;20076;-76
2021/08/19 02:29:40;;;;;;;4.78;2.85;;;;;;;;;;5035183;28;20474;-77
2021/08/19 02:32:06;;;;;;;5.72;2.92;;;;;;;;;;5035126;28;20028;-76
2021/08/19 02:34:32;;;;;;;4.63;2.97;;;;;;;;;;5035120;28;20025;-75
2021/08/19 02:36:58;;;;;;;5.72;3.30;;;;;;;;;;5035011;28;20071;-77
2021/08/19 02:39:24;;;;;;;7.53;2.78;;;;;;;;;;5035003;28;20036;-75
2021/08/19 02:41:50;;;;;;;5.60;3.20;;;;;;;;;;5034935;28;20473;-75
2021/08/19 02:44:17;;;;;;;5.85;3.10;;;;;;;;;;5035366;28;20462;-76
2021/08/19 02:46:43;;;;;;;5.28;2.80;;;;;;;;;;5035138;28;20022;-75
2021/08/19 02:49:09;;;;;;;5.47;2.60;;;;;;;;;;5035067;28;20484;-75
2021/08/19 02:51:35;;;;;;;6.35;2.92;;;;;;;;;;5035045;28;20018;-76
2021/08/19 02:54:01;;;;;;;6.18;3.20;;;;;;;;;;5034730;28;20032;-76
2021/08/19 02:56:27;;;;;;;4.80;3.38;;;;;;;;;;5034932;28;20026;-75
2021/08/19 02:58:53;;;;;;;4.47;3.05;;;;;;;;;;5016855;28;20033;-76
2021/08/19 03:01:19;;;;;;;6.90;2.72;;;;;;;;;;5034892;28;20022;-76
2021/08/19 03:03:45;;;;;;;5.03;2.83;;;;;;;;;;5035022;28;20033;-75
2021/08/19 03:06:11;;;;;;;7.43;3.08;;;;;;;;;;5034760;28;20021;-75
2021/08/19 03:08:37;;;;;;;6.20;3.35;;;;;;;;;;5034331;28;20079;-75
2021/08/19 03:11:03;;;;;;;4.88;2.95;;;;;;;;;;5034376;28;20091;-76
2021/08/19 03:13:29;;;;;;;6.40;2.75;;;;;;;;;;5016604;28;20033;-76
2021/08/19 03:15:55;;;;;;;5.78;3.10;;;;;;;;;;5016603;28;20279;-77
2021/08/19 03:18:21;;;;;;;5.47;2.92;;;;;;;;;;5034280;28;20559;-76
2021/08/19 03:20:47;;;;;;;4.88;2.85;;;;;;;;;;5034271;28;20096;-75
2021/08/19 03:23:13;;;;;;;4.55;2.83;;;;;;;;;;5034340;28;20033;-76
2021/08/19 03:25:39;;;;;;;6.00;3.40;;;;;;;;;;5016385;28;20378;-75
2021/08/19 03:28:08;;;;;;;5.93;3.17;;;;;;;;;;5034070;28;20034;-76
2021/08/19 03:30:34;;;;;;;5.78;3.17;;;;;;;;;;5033471;28;20013;-76
2021/08/19 03:33:04;;;;;;;6.45;3.10;;;;;;;;;;5034250;28;20037;-76
2021/08/19 03:35:30;;;;;;;6.55;3.40;;;;;;;;;;5033938;28;20057;-76
2021/08/19 03:37:56;;;;;;;4.88;2.90;;;;;;;;;;5033894;28;20034;-76
2021/08/19 03:40:22;;;;;;;6.25;2.80;;;;;;;;;;5016172;28;20033;-76
2021/08/19 03:42:48;;;;;;;5.60;3.20;;;;;;;;;;5033725;28;20458;-77
2021/08/19 03:45:17;;;;;;;6.03;3.70;;;;;;;;;;5016100;28;20022;-76
2021/08/19 03:47:43;;;;;;;6.07;3.28;;;;;;;;;;5034015;28;20109;-76
2021/08/19 03:50:09;;;;;;;6.88;3.63;;;;;;;;;;5033573;28;20021;-76
2021/08/19 03:52:36;;;;;;;5.18;3.30;;;;;;;;;;5033947;28;20030;-77
2021/08/19 03:55:02;;;;;;;4.28;3.03;;;;;;;;;;5033493;28;20044;-75
2021/08/19 03:57:28;;;;;;;8.18;3.33;;;;;;;;;;5033859;28;20029;-77
2021/08/19 03:59:54;;;;;;;7.50;3.03;;;;;;;;;;5033569;28;20025;-76
2021/08/19 04:02:20;;;;;;;5.40;3.08;;;;;;;;;;5033439;28;20470;-76
2021/08/19 04:04:46;;;;;;;6.55;3.58;;;;;;;;;;5033789;28;20027;-76
2021/08/19 04:07:12;;;;;;;4.28;3.10;;;;;;;;;;5033278;28;20033;-75
2021/08/19 04:09:38;;;;;;;5.25;3.13;;;;;;;;;;5033570;28;20029;-75
2021/08/19 04:12:04;;;;;;;7.03;3.63;;;;;;;;;;5033728;28;20029;-75
2021/08/19 04:14:31;;;;;;;6.32;3.58;;;;;;;;;;5033900;28;20025;-75
2021/08/19 04:16:57;;;;;;;7.53;3.40;;;;;;;;;;5033596;28;20053;-75
2021/08/19 04:19:23;;;;;;;7.32;3.42;;;;;;;;;;5033302;28;20030;-75
2021/08/19 04:21:51;;;;;;;6.40;3.92;;;;;;;;;;5033291;28;20030;-75
2021/08/19 04:24:17;;;;;;;6.97;3.70;;;;;;;;;;5033435;28;20087;-76
2021/08/19 04:26:43;;;;;;;8.57;4.00;;;;;;;;;;5033177;28;20055;-76
2021/08/19 04:29:09;;;;;;;6.50;3.58;;;;;;;;;;5033162;28;20092;-76
2021/08/19 04:31:35;;;;;;;6.53;3.25;;;;;;;;;;5033131;28;20116;-76
2021/08/19 04:34:03;;;;;;;5.97;3.20;;;;;;;;;;5033148;28;20511;-76
2021/08/19 04:36:29;;;;;;;7.15;3.60;;;;;;;;;;5033125;28;20025;-77
2021/08/19 04:38:55;;;;;;;5.55;3.10;;;;;;;;;;5033169;28;20520;-76
2021/08/19 04:41:21;;;;;;;5.53;3.10;;;;;;;;;;5033093;28;20071;-76
2021/08/19 04:43:47;;;;;;;7.57;3.72;;;;;;;;;;5036915;28;20091;-76
2021/08/19 04:46:13;;;;;;;6.07;3.17;;;;;;;;;;5019384;28;20032;-77
2021/08/19 04:48:39;;;;;;;4.95;2.92;;;;;;;;;;5037340;28;20017;-76
2021/08/19 04:51:06;;;;;;;5.25;3.55;;;;;;;;;;5037049;28;20040;-76
2021/08/19 04:53:32;;;;;;;4.93;3.45;;;;;;;;;;5037527;28;20105;-76
2021/08/19 04:55:58;;;;;;;6.65;3.10;;;;;;;;;;5036992;28;20052;-77
2021/08/19 04:58:26;;;;;;;5.90;3.33;;;;;;;;;;5037238;28;20026;-76
2021/08/19 05:00:52;;;;;;;4.65;3.17;;;;;;;;;;5036868;28;20025;-77
2021/08/19 05:03:19;;;;;;;5.80;3.10;;;;;;;;;;5036718;28;20021;-76
2021/08/19 05:05:45;;;;;;;6.15;3.70;;;;;;;;;;5036742;28;20030;-77
2021/08/19 05:08:11;;;;;;;7.28;3.30;;;;;;;;;;5036913;28;20097;-76
2021/08/19 05:10:37;;;;;;;7.03;3.15;;;;;;;;;;5036454;28;20476;-76
2021/08/19 05:13:03;;;;;;;6.05;3.30;;;;;;;;;;5036877;28;20029;-76
2021/08/19 05:15:29;;;;;;;4.88;3.20;;;;;;;;;;5036586;28;20397;-76
2021/08/19 05:17:55;;;;;;;8.50;3.42;;;;;;;;;;5036563;28;20029;-76
2021/08/19 05:20:22;;;;;;;6.65;3.38;;;;;;;;;;5037044;28;20029;-75
2021/08/19 05:22:48;;;;;;;6.32;3.40;;;;;;;;;;5036905;28;20025;-76
2021/08/19 05:25:14;;;;;;;8.18;3.30;;;;;;;;;;5018681;28;20021;-77
2021/08/19 05:27:40;;;;;;;5.63;3.35;;;;;;;;;;5036367;28;20021;-76
2021/08/19 05:30:07;;;;;;;6.50;3.15;;;;;;;;;;5036562;28;20039;-77
2021/08/19 05:32:33;;;;;;;5.55;3.28;;;;;;;;;;5036245;28;20029;-77
2021/08/19 05:35:02;;;;;;;4.85;3.47;;;;;;;;;;5036119;28;20033;-75
2021/08/19 05:37:28;;;;;;;4.82;3.25;;;;;;;;;;5036470;28;20385;-76
2021/08/19 05:39:54;;;;;;;7.75;3.97;;;;;;;;;;5036422;28;20031;-74
2021/08/19 05:42:20;;;;;;;7.10;3.88;;;;;;;;;;5036020;28;20021;-76
2021/08/19 05:44:46;;;;;;;5.28;3.10;;;;;;;;;;5036295;28;20052;-75
2021/08/19 05:47:12;;;;;;;9.50;3.67;;;;;;;;;;5035959;28;20481;-77
2021/08/19 05:49:43;;;;;;;5.50;3.05;;;;;;;;;;5035911;28;20026;-77
2021/08/19 05:52:12;;;;;;;7.00;3.50;;;;;;;;;;5017929;28;20405;-76
2021/08/19 05:54:37;;;;;;;7.00;3.65;;;;;;;;;;5017517;28;20499;-77
2021/08/19 05:57:04;;;;;;;7.93;4.03;;;;;;;;;;5035828;28;20053;-75
2021/08/19 05:59:30;;;;;;;6.72;3.60;;;;;;;;;;5036174;28;20133;-76
2021/08/19 06:01:56;;;;;;;5.75;3.72;;;;;;;;;;5035991;28;20552;-76
2021/08/19 06:04:22;;;;;;;9.70;3.83;;;;;;;;;;5035899;28;20025;-76
2021/08/19 06:06:48;;;;;;;7.95;4.00;;;;;;;;;;5017837;28;20052;-77
2021/08/19 06:09:15;;;;;;;6.38;3.55;;;;;;;;;;5017767;28;20076;-76
2021/08/19 06:11:41;;;;;;;7.38;3.28;;;;;;;;;;5017381;28;20575;-76
2021/08/19 06:14:07;;;;;;;8.65;3.80;;;;;;;;;;5035780;28;20045;-76
2021/08/19 06:16:33;;;;;;;6.80;3.78;;;;;;;;;;5017550;28;20477;-76
2021/08/19 06:19:00;;;;;;;5.93;3.33;;;;;;;;;;5035450;28;20025;-76
2021/08/19 06:21:26;;;;;;;5.40;3.50;;;;;;;;;;5035634;28;20108;-75
2021/08/19 06:23:52;;;;;;;8.50;3.92;;;;;;;;;;5035214;28;20026;-77
2021/08/19 06:26:18;;;;;;;8.10;3.75;;;;;;;;;;5035527;28;20029;-76
2021/08/19 06:28:44;;;;;;;6.43;3.67;;;;;;;;;;5017449;28;20095;-76
2021/08/19 06:31:11;;;;;;;7.03;3.83;;;;;;;;;;5035171;28;20487;-76
2021/08/19 06:33:37;;;;;;;7.32;3.38;;;;;;;;;;5035114;28;20478;-75
2021/08/19 06:36:03;;;;;;;4.95;3.40;;;;;;;;;;5034981;28;20108;-77
2021/08/19 06:38:29;;;;;;;5.68;3.47;;;;;;;;;;5035304;28;20029;-75
2021/08/19 06:40:55;;;;;;;7.13;3.50;;;;;;;;;;5035047;28;20505;-74
2021/08/19 06:43:22;;;;;;;4.45;3.15;;;;;;;;;;5035095;28;20079;-76
2021/08/19 06:45:47;;;;;;;5.25;2.97;;;;;;;;;;5035486;28;20072;-75
2021/08/19 06:48:13;;;;;;;5.38;3.13;;;;;;;;;;5034873;28;20473;-75
2021/08/19 06:50:39;;;;;;;5.90;3.33;;;;;;;;;;5035107;28;20021;-75
2021/08/19 06:53:07;;;;;;;3.92;3.00;;;;;;;;;;5016953;28;20445;-75
2021/08/19 06:55:33;;;;;;;5.93;3.40;;;;;;;;;;5034728;28;20474;-75
2021/08/19 06:57:59;;;;;;;6.70;3.40;;;;;;;;;;5034942;28;20036;-76
2021/08/19 07:00:25;;;;;;;4.03;2.90;;;;;;;;;;5034675;28;20028;-74
2021/08/19 07:02:51;;;;;;;4.97;3.15;;;;;;;;;;5034584;28;20033;-76
2021/08/19 07:05:17;;;;;;;6.50;3.17;;;;;;;;;;5033798;28;20071;-77
2021/08/19 07:07:43;;;;;;;5.53;3.40;;;;;;;;;;5034196;28;20546;-76
2021/08/19 07:10:09;;;;;;;6.05;3.22;;;;;;;;;;5033317;28;20038;-76
2021/08/19 07:12:36;;;;;;;4.15;2.88;;;;;;;;;;5034069;28;20025;-76
2021/08/19 07:15:02;;;;;;;6.40;3.00;;;;;;;;;;5016607;28;20030;-75
2021/08/19 07:17:28;;;;;;;6.22;2.80;;;;;;;;;;5034856;28;20030;-76
2021/08/19 07:19:54;;;;;;;6.35;3.13;;;;;;;;;;5034182;28;20029;-76
2021/08/19 07:22:21;;;;;;;4.65;2.60;;;;;;;;;;5034345;28;20032;-76
2021/08/19 07:24:47;;;;;;;5.40;2.85;;;;;;;;;;5034115;28;20474;-76
2021/08/19 07:27:13;;;;;;;6.25;3.10;;;;;;;;;;5034064;28;20024;-77
2021/08/19 07:29:39;;;;;;;7.72;3.22;;;;;;;;;;5034376;28;20036;-76
2021/08/19 07:32:05;;;;;;;5.95;3.00;;;;;;;;;;5016316;28;20117;-77
2021/08/19 07:34:31;;;;;;;5.13;3.17;;;;;;;;;;5016259;28;20443;-75
2021/08/19 07:36:57;;;;;;;5.93;2.55;;;;;;;;;;5033855;28;20509;-77
2021/08/19 07:39:23;;;;;;;6.50;3.00;;;;;;;;;;5033779;28;20390;-76
2021/08/19 07:41:49;;;;;;;4.55;2.88;;;;;;;;;;5016048;28;20501;-76
2021/08/19 07:44:16;;;;;;;5.30;2.67;;;;;;;;;;5033802;28;20033;-76
2021/08/19 07:46:42;;;;;;;6.93;2.60;;;;;;;;;;5034036;28;20029;-75
2021/08/19 07:49:08;;;;;;;4.47;2.83;;;;;;;;;;5033753;28;20500;-77
2021/08/19 07:51:34;;;;;;;4.30;2.55;;;;;;;;;;5033696;28;20485;-76
2021/08/19 07:54:01;;;;;;;4.53;2.38;;;;;;;;;;5033655;28;20025;-76
2021/08/19 07:56:27;;;;;;;3.53;2.53;;;;;;;;;;5033599;28;20035;-76
2021/08/19 07:58:53;;;;;;;4.88;2.42;;;;;;;;;;5033891;28;20087;-76
2021/08/19 08:01:19;;;;;;;4.30;2.10;;;;;;;;;;5033563;28;20030;-77
2021/08/19 08:03:45;;;;;;;5.43;2.90;;;;;;;;;;5033350;28;20026;-77
2021/08/19 08:06:11;;;;;;;5.38;2.50;;;;;;;;;;5033413;28;20028;-77
2021/08/19 08:08:37;;;;;;;4.93;2.58;;;;;;;;;;5033498;28;20079;-76
2021/08/19 08:11:03;;;;;;;6.05;2.80;;;;;;;;;;5033370;28;20045;-76
2021/08/19 08:13:29;;;;;;;4.10;2.75;;;;;;;;;;5033375;28;20037;-76
2021/08/19 08:15:56;;;;;;;3.75;2.50;;;;;;;;;;5033654;28;20060;-75
2021/08/19 08:18:22;;;;;;;4.72;2.90;;;;;;;;;;5033603;28;20040;-76
2021/08/19 08:20:48;;;;;;;3.90;2.67;;;;;;;;;;5034082;28;20373;-77
2021/08/19 08:23:18;;;;;;;5.20;2.45;;;;;;;;;;5033418;28;20025;-76
2021/08/19 08:25:44;;;;;;;;;;;;;;;;;;5034548;28;20013;-76
2021/08/19 08:28:11;;;;;;;4.45;2.30;;;;;;;;;;5033258;28;19928;-77
2021/08/19 08:30:39;;;;;;;5.30;2.63;;;;;;;;;;5033189;28;20433;-76
2021/08/19 08:33:05;;;;;;;4.78;2.78;;;;;;;;;;5033447;28;20029;-76
2021/08/19 08:35:34;;;;;;;4.88;2.40;;;;;;;;;;5033432;28;20105;-75
2021/08/19 08:38:05;;;;;;;5.20;2.45;;;;;;;;;;5033139;28;20104;-76
2021/08/19 08:40:33;;;;;;;4.45;2.00;;;;;;;;;;5015232;28;20034;-77
2021/08/19 08:42:59;;;;;;;3.95;2.33;;;;;;;;;;5033586;28;20112;-77
2021/08/19 08:45:26;;;;;;;3.28;2.00;;;;;;;;;;5033625;28;20382;-76
2021/08/19 08:47:52;;;;;;;3.28;1.92;;;;;;;;;;5033023;28;20017;-77
2021/08/19 08:50:18;;;;;;;3.70;1.88;;;;;;;;;;5033174;28;20100;-77
2021/08/19 08:52:44;;;;;;;4.38;2.20;;;;;;;;;;5033017;28;20025;-77
2021/08/19 08:55:11;;;;;;;4.40;2.30;;;;;;;;;;5033242;28;20051;-76
2021/08/19 08:57:37;;;;;;;3.85;2.33;;;;;;;;;;5032949;28;20132;-76
2021/08/19 09:00:08;;;;;;;5.70;2.28;;;;;;;;;;5033248;28;20076;-77
2021/08/19 09:02:36;;;;;;;4.00;2.38;;;;;;;;;;5033367;28;20059;-75
2021/08/19 09:05:14;;;;;;;3.90;2.40;;;;;;;;;;5033175;28;20469;-76
2021/08/19 09:07:40;;;;;;;3.70;2.35;;;;;;;;;;5032820;28;20086;-76
2021/08/19 09:10:06;;;;;;;2.88;2.10;;;;;;;;;;5032615;28;20564;-76
2021/08/19 09:12:39;;;;;;;4.30;2.10;;;;;;;;;;5033270;28;20128;-76
2021/08/19 09:15:12;;;;;;;3.95;2.15;;;;;;;;;;5032902;28;20075;-77
2021/08/19 09:17:52;;;;;;;3.88;2.38;;;;;;;;;;5033066;28;20044;-76
2021/08/19 09:20:19;;;;;;;3.17;2.17;;;;;;;;;;5033329;28;20072;-77
2021/08/19 09:22:52;;;;;;;3.20;2.05;;;;;;;;;;5032907;28;20568;-76
2021/08/19 09:25:31;;;;;;;4.03;2.53;;;;;;;;;;5033256;28;20025;-76
2021/08/19 09:28:10;;;;;;;5.13;2.15;;;;;;;;;;5032677;28;20022;-77
2021/08/19 09:30:37;;;;;;;2.90;1.90;;;;;;;;;;5036474;28;20057;-76
2021/08/19 09:33:04;;;;;;;4.20;2.10;;;;;;;;;;5036297;28;20032;-75
2021/08/19 09:35:31;;;;;;;3.88;2.05;;;;;;;;;;5036486;28;20025;-77
2021/08/19 09:37:58;;;;;;;3.80;1.80;;;;;;;;;;5036187;28;20439;-76
2021/08/19 09:40:24;;;;;;;4.30;2.20;;;;;;;;;;5036455;28;20026;-76
2021/08/19 09:42:50;;;;;;;2.20;1.83;;;;;;;;;;5036321;28;20029;-76
2021/08/19 09:45:25;;;;;;;5.35;2.00;;;;;;;;;;5036078;28;20033;-76
2021/08/19 09:47:52;;;;;;;2.35;1.92;;;;;;;;;;5036023;28;20024;-76
2021/08/19 09:50:20;;;;;;;2.95;1.90;;;;;;;;;;5035854;28;20501;-76
2021/08/19 09:52:50;;;;;;;3.53;2.15;;;;;;;;;;5035908;28;20026;-76
2021/08/19 09:55:15;;;;;;;;;;;;;;;;;;5036893;28;20052;-77
2021/08/19 09:57:41;;;;;;;2.20;1.80;;;;;;;;;;5036020;28;19909;-76
2021/08/19 10:00:08;;;;;;;4.68;2.30;;;;;;;;;;5035820;28;20477;-76
2021/08/19 10:02:35;;;;;;;3.47;1.92;;;;;;;;;;5017911;28;20441;-77
2021/08/19 10:05:01;;;;;;;3.60;1.83;;;;;;;;;;5017961;28;20057;-75
2021/08/19 10:07:27;;;;;;;3.33;1.98;;;;;;;;;;5035581;28;20370;-76
2021/08/19 10:09:53;;;;;;;3.50;2.03;;;;;;;;;;5035413;28;20054;-76
2021/08/19 10:12:19;;;;;;;3.03;1.77;;;;;;;;;;5035825;28;20029;-76
2021/08/19 10:14:45;;;;;;;2.78;1.75;;;;;;;;;;5035503;28;20033;-76
2021/08/19 10:17:11;;;;;;;2.70;1.60;;;;;;;;;;5035479;28;20029;-77
2021/08/19 10:19:41;;;;;;;2.67;1.70;;;;;;;;;;5017672;28;20083;-77
2021/08/19 10:22:07;;;;;;;;;;;;;;;;;;5035800;28;20026;-76
2021/08/19 10:24:35;;;;;;;5.97;2.28;;;;;;;;;;5035561;28;19909;-77
2021/08/19 10:27:12;;;;;;;3.72;1.70;;;;;;;;;;5035932;28;20028;-77
2021/08/19 10:29:50;;;;;;;3.40;2.20;;;;;;;;;;5035290;28;20075;-77
2021/08/19 10:32:33;;;;;;;5.25;1.92;;;;;;;;;;5035520;28;20029;-77
2021/08/19 10:35:04;;;;;;;2.58;1.92;;;;;;;;;;5035169;28;20489;-77
2021/08/19 10:37:47;;;;;;;7.32;1.90;;;;;;;;;;5035369;28;20017;-76
2021/08/19 10:40:22;;;;;;;3.50;2.10;;;;;;;;;;5035201;28;20053;-76
2021/08/19 10:42:49;;;;;;;2.58;2.00;;;;;;;;;;5034941;28;20029;-77
2021/08/19 10:45:30;;;;;;;2.33;1.67;;;;;;;;;;5034965;28;20104;-77
2021/08/19 10:48:02;;;;;;;2.88;2.00;;;;;;;;;;5017136;28;20107;-76
2021/08/19 10:50:34;;;;;;;2.90;1.88;;;;;;;;;;5034884;28;20030;-76
2021/08/19 10:53:09;;;;;;;5.20;1.90;;;;;;;;;;5035059;28;20021;-77
2021/08/19 10:55:42;;;;;;;2.38;1.50;;;;;;;;;;5034996;28;20030;-77
2021/08/19 10:58:21;;;;;;;2.50;1.60;;;;;;;;;;5034720;28;20028;-76
2021/08/19 11:00:47;;;;;;;3.15;1.60;;;;;;;;;;5016924;28;20080;-75
2021/08/19 11:03:32;;;;;;;4.13;1.77;;;;;;;;;;5034809;28;20386;-77
2021/08/19 11:05:58;;;;;;;1.80;1.48;;;;;;;;;;5016818;28;20140;-76
2021/08/19 11:08:59;;;;;;;2.35;2.00;;;;;;;;;;5016726;28;20018;-75
2021/08/19 11:11:26;;;;;;;3.22;1.40;;;;;;;;;;4969456;28;20158;-75
2021/08/19 11:13:57;;;;;;;2.53;1.58;;;;;;;;;;5013551;28;20033;-77
2021/08/19 11:16:23;;;;;;;2.72;1.40;;;;;;;;;;5034599;28;20080;-75
2021/08/19 11:18:49;;;;;;;2.10;1.65;;;;;;;;;;5016431;28;20029;-76
2021/08/19 11:21:15;;;;;;;6.40;1.65;;;;;;;;;;5034134;28;20029;-75
2021/08/19 11:23:43;;;;;;;2.13;1.60;;;;;;;;;;5034020;28;20112;-75
2021/08/19 11:26:13;;;;;;;3.22;1.80;;;;;;;;;;5034103;28;20103;-76
2021/08/19 11:28:40;;;;;;;2.50;1.90;;;;;;;;;;5034099;28;20049;-75
2021/08/19 11:31:20;;;;;;;3.17;1.70;;;;;;;;;;5033955;28;20118;-76
2021/08/19 11:33:46;;;;;;;2.95;1.77;;;;;;;;;;5034371;28;20029;-77
2021/08/19 11:36:13;;;;;;;3.33;1.77;;;;;;;;;;5034187;28;20037;-76
2021/08/19 11:38:41;;;;;;;1.92;1.70;;;;;;;;;;5034138;28;20053;-77
2021/08/19 11:41:11;;;;;;;2.88;1.80;;;;;;;;;;5034172;28;20108;-77
2021/08/19 11:43:38;;;;;;;2.80;1.90;;;;;;;;;;5033927;28;20022;-77
2021/08/19 11:46:13;;;;;;;1.88;1.50;;;;;;;;;;5033848;28;20052;-77
2021/08/19 11:48:50;;;;;;;2.38;1.80;;;;;;;;;;5033677;28;20474;-77
2021/08/19 11:51:22;;;;;;;2.65;1.60;;;;;;;;;;5033923;28;20029;-76
2021/08/19 11:53:49;;;;;;;2.38;1.73;;;;;;;;;;5033507;28;20033;-76
2021/08/19 11:56:16;;;;;;;2.10;1.65;;;;;;;;;;5033646;28;20437;-80
2021/08/19 11:58:42;;;;;;;2.50;1.65;;;;;;;;;;5033529;28;20026;-77
2021/08/19 12:01:09;;;;;;;2.30;1.70;;;;;;;;;;5033447;28;20026;-75
2021/08/19 12:03:35;;;;;;;2.83;1.83;;;;;;;;;;5015637;28;20018;-76
2021/08/19 12:06:03;;;;;;;1.85;1.50;;;;;;;;;;5033588;28;20033;-76
2021/08/19 12:08:29;;;;;;;2.75;2.05;;;;;;;;;;5015303;28;20552;-78
2021/08/19 12:10:57;;;;;;;2.28;1.55;;;;;;;;;;5033234;28;20053;-78
2021/08/19 12:13:23;;;;;;;2.85;1.70;;;;;;;;;;5033508;28;20101;-78
2021/08/19 12:15:50;;;;;;;3.75;1.88;;;;;;;;;;5033250;28;20036;-78
2021/08/19 12:18:26;;;;;;;2.17;1.67;;;;;;;;;;5033338;28;20405;-81
2021/08/19 12:21:11;;;;;;;1.50;1.40;;;;;;;;;;5025585;28;20033;-76
2021/08/19 12:23:37;;;;;;;3.60;2.00;;;;;;;;;;5033292;28;20064;-78
2021/08/19 12:26:10;;;;;;;2.72;1.52;;;;;;;;;;5033944;28;20427;-77
2021/08/19 12:28:36;;;;;;;3.25;1.67;;;;;;;;;;5033492;28;20022;-74
2021/08/19 12:31:06;;;;;;;3.75;2.03;;;;;;;;;;5033431;28;20018;-75
2021/08/19 12:33:36;;;;;;;2.53;1.60;;;;;;;;;;5033792;28;20021;-74
2021/08/19 12:36:11;;;;;;;2.72;1.60;;;;;;;;;;5033445;28;20025;-76
2021/08/19 12:38:38;;;;;;;1.98;1.65;;;;;;;;;;5032844;28;20544;-78
2021/08/19 12:41:17;;;;;;;2.20;1.60;;;;;;;;;;5032790;28;20037;-73
2021/08/19 12:43:44;;;;;;;1.80;1.70;;;;;;;;;;5033519;28;20017;-76
2021/08/19 12:46:13;;;;;;;2.58;1.60;;;;;;;;;;5033025;28;20380;-78
2021/08/19 12:48:39;;;;;;;3.22;1.88;;;;;;;;;;5033016;28;20014;-76
2021/08/19 12:51:18;;;;;;;2.50;1.67;;;;;;;;;;5032967;28;20057;-77
2021/08/19 12:54:03;;;;;;;3.72;1.80;;;;;;;;;;5032970;28;20025;-77
2021/08/19 12:56:29;;;;;;;2.55;1.42;;;;;;;;;;5032918;28;20079;-78
2021/08/19 12:58:55;;;;;;;3.25;1.70;;;;;;;;;;5033475;28;20413;-78
2021/08/19 13:01:21;;;;;;;2.28;1.60;;;;;;;;;;5033084;28;20071;-75
2021/08/19 13:03:47;;;;;;;2.80;1.80;;;;;;;;;;5033340;28;20034;-78
2021/08/19 13:06:13;;;;;;;3.80;1.58;;;;;;;;;;5037356;28;20021;-78
2021/08/19 13:08:39;;;;;;;2.53;1.70;;;;;;;;;;5036687;28;20096;-78
2021/08/19 13:11:05;;;;;;;3.80;1.73;;;;;;;;;;5036418;28;20446;-78
2021/08/19 13:13:31;;;;;;;3.08;1.92;;;;;;;;;;5036874;28;20026;-77
2021/08/19 13:15:57;;;;;;;2.22;1.65;;;;;;;;;;5036452;28;20401;-78
2021/08/19 13:18:24;;;;;;;1.85;1.40;;;;;;;;;;5036477;28;20021;-77
2021/08/19 13:20:50;;;;;;;1.75;1.45;;;;;;;;;;5036806;28;20026;-76
2021/08/19 13:23:16;;;;;;;2.67;1.80;;;;;;;;;;5036882;28;20355;-78
2021/08/19 13:25:42;;;;;;;3.67;1.52;;;;;;;;;;5036516;28;20025;-74
2021/08/19 13:28:11;;;;;;;3.70;1.40;;;;;;;;;;5036605;28;20025;-78
2021/08/19 13:30:37;;;;;;;3.88;1.40;;;;;;;;;;5036593;28;20029;-78
2021/08/19 13:33:03;;;;;;;3.67;1.65;;;;;;;;;;5036307;28;20021;-74
2021/08/19 13:35:32;;;;;;;2.50;1.70;;;;;;;;;;5036636;28;20037;-77
2021/08/19 13:37:58;;;;;;;2.15;1.40;;;;;;;;;;5036382;28;20022;-78
2021/08/19 13:40:24;;;;;;;2.20;1.30;;;;;;;;;;5036197;28;20080;-75
2021/08/19 13:42:51;;;;;;;1.60;1.33;;;;;;;;;;5036294;28;20033;-76
2021/08/19 13:45:17;;;;;;;2.47;1.30;;;;;;;;;;5036056;28;20029;-78
2021/08/19 13:47:43;;;;;;;1.52;1.02;;;;;;;;;;5018553;28;20071;-77
2021/08/19 13:50:09;;;;;;;1.77;1.25;;;;;;;;;;5036118;28;20036;-80
2021/08/19 13:52:36;;;;;;;1.38;1.10;;;;;;;;;;5018158;28;20429;-76
2021/08/19 13:55:02;;;;;;;1.52;1.00;;;;;;;;;;5035970;28;20021;-76
2021/08/19 13:57:28;;;;;;;1.35;0.93;;;;;;;;;;5036140;28;20040;-77
2021/08/19 13:59:54;;;;;;;1.80;0.93;;;;;;;;;;5018055;28;20474;-77
2021/08/19 14:02:20;;;;;;;1.17;0.90;;;;;;;;;;5018050;28;20017;-79
2021/08/19 14:04:46;;;;;;;3.10;1.23;;;;;;;;;;5035663;28;20033;-78
2021/08/19 14:07:12;;;;;;;1.48;0.98;;;;;;;;;;5035641;28;20040;-78
2021/08/19 14:09:38;;;;;;;1.42;0.93;;;;;;;;;;5035635;28;20478;-79
2021/08/19 14:12:04;;;;;;;1.20;0.90;;;;;;;;;;5035177;28;20042;-80
2021/08/19 14:14:30;;;;;;;1.10;1.00;;;;;;;;;;5035633;28;20160;-75
2021/08/19 14:16:56;;;;;;;1.38;0.95;;;;;;;;;;5035858;28;20064;-75
2021/08/19 14:19:22;;;;;;;0.95;0.85;;;;;;;;;;5035760;28;20033;-80
2021/08/19 14:21:49;;;;;;;2.25;1.00;;;;;;;;;;5017933;28;20029;-78
2021/08/19 14:24:15;;;;;;;1.33;1.00;;;;;;;;;;5035607;28;20033;-79
2021/08/19 14:26:44;;;;;;;1.17;1.02;;;;;;;;;;5035400;28;20018;-74
2021/08/19 14:29:09;;;;;;;1.25;1.15;;;;;;;;;;5035852;28;20022;-75
2021/08/19 14:31:35;;;;;;;1.20;1.10;;;;;;;;;;5035281;28;20399;-76
2021/08/19 14:34:02;;;;;;;2.05;1.30;;;;;;;;;;5035486;28;20088;-78
2021/08/19 14:36:28;;;;;;;1.23;1.05;;;;;;;;;;5035443;28;20035;-80
2021/08/19 14:38:54;;;;;;;2.45;1.33;;;;;;;;;;5027168;28;20104;-77
2021/08/19 14:41:20;;;;;;;1.60;1.08;;;;;;;;;;5016626;28;20557;-78
2021/08/19 14:43:46;;;;;;;1.23;1.05;;;;;;;;;;5033992;28;20065;-77